createdAt,value
2023-01-05T00:01:40.907Z,8.83
2023-01-05T00:04:09.748Z,9.10
2023-01-05T00:06:40.499Z,9.13
2023-01-05T00:09:10.160Z,9.10
2023-01-05T00:11:56.286Z,8.70
2023-01-05T00:14:44.650Z,9.30
2023-01-05T00:17:33.773Z,9.30
2023-01-05T00:20:19.762Z,9.00
2023-01-05T00:22:51.782Z,8.73
2023-01-05T00:25:22.885Z,9.20
2023-01-05T00:27:53.704Z,9.03
2023-01-05T00:30:25.368Z,9.00
2023-01-05T00:32:53.908Z,8.60
2023-01-05T00:35:23.444Z,8.73
2023-01-05T00:37:53.298Z,9.23
2023-01-05T00:40:23.648Z,9.20
2023-01-05T00:42:52.067Z,9.20
2023-01-05T00:45:22.117Z,9.00
2023-01-05T00:47:51.965Z,9.10
2023-01-05T00:50:21.425Z,9.03
2023-01-05T00:52:52.180Z,8.90
2023-01-05T00:55:20.548Z,9.10
2023-01-05T00:57:48.850Z,9.00
2023-01-05T01:00:19.651Z,9.03
2023-01-05T01:02:48.882Z,9.20
2023-01-05T01:05:17.285Z,9.13
2023-01-05T01:07:45.656Z,9.37
2023-01-05T01:10:15.492Z,9.27
2023-01-05T01:12:43.794Z,8.90
2023-01-05T01:15:12.597Z,8.73
2023-01-05T01:17:40.957Z,8.80
2023-01-05T01:20:10.958Z,9.30
2023-01-05T01:22:39.442Z,9.00
2023-01-05T01:25:10.239Z,9.10
2023-01-05T01:27:39.886Z,9.30
2023-01-05T01:30:10.505Z,9.00
2023-01-05T01:32:38.899Z,9.10
2023-01-05T01:35:08.554Z,9.10
2023-01-05T01:37:37.205Z,9.00
2023-01-05T01:40:06.693Z,9.10
2023-01-05T01:42:35.580Z,9.53
2023-01-05T01:45:19.303Z,9.10
2023-01-05T01:47:54.807Z,9.73
2023-01-05T01:50:30.149Z,9.30
2023-01-05T01:53:04.514Z,9.13
2023-01-05T01:55:34.106Z,9.10
2023-01-05T01:58:04.603Z,8.93
2023-01-05T02:00:34.620Z,9.17
2023-01-05T02:03:03.141Z,9.00
2023-01-05T02:05:33.303Z,9.10
2023-01-05T02:08:01.873Z,8.90
2023-01-05T02:10:57.375Z,9.30
2023-01-05T02:13:41.638Z,9.60
2023-01-05T02:16:23.371Z,9.07
2023-01-05T02:19:18.133Z,9.03
2023-01-05T02:22:00.408Z,8.90
2023-01-05T02:25:18.762Z,9.00
2023-01-05T02:27:59.904Z,9.40
2023-01-05T02:31:07.671Z,9.37
2023-01-05T02:33:55.813Z,9.00
2023-01-05T02:36:31.413Z,9.00
2023-01-05T02:39:11.821Z,9.37
2023-01-05T02:41:46.618Z,9.00
2023-01-05T02:44:18.388Z,9.00
2023-01-05T02:47:03.362Z,9.30
2023-01-05T02:49:38.282Z,9.20
2023-01-05T02:52:09.137Z,9.13
2023-01-05T02:54:46.545Z,9.10
2023-01-05T02:57:19.333Z,8.83
2023-01-05T02:59:53.419Z,9.00
2023-01-05T03:02:30.486Z,9.17
2023-01-05T03:05:05.748Z,9.10
2023-01-05T03:07:38.973Z,9.10
2023-01-05T03:10:24.602Z,9.00
2023-01-05T03:13:16.396Z,8.93
2023-01-05T03:15:47.823Z,9.40
2023-01-05T03:18:21.150Z,9.27
2023-01-05T03:20:55.932Z,9.30
2023-01-05T03:23:42.421Z,8.80
2023-01-05T03:26:30.571Z,9.37
2023-01-05T03:29:20.236Z,9.00
2023-01-05T03:32:15.005Z,8.93
2023-01-05T03:35:08.934Z,9.13
2023-01-05T03:37:43.099Z,9.50
2023-01-05T03:40:22.584Z,9.10
2023-01-05T03:42:54.248Z,9.47
2023-01-05T03:45:24.927Z,9.60
2023-01-05T03:47:56.053Z,9.03
2023-01-05T03:50:29.096Z,9.50
2023-01-05T03:52:57.471Z,9.27
2023-01-05T03:55:25.768Z,9.10
2023-01-05T03:57:55.098Z,8.87
2023-01-05T04:00:25.133Z,9.07
2023-01-05T04:03:01.247Z,9.10
2023-01-05T04:05:31.048Z,9.10
2023-01-05T04:07:59.296Z,9.00
2023-01-05T04:10:27.695Z,9.27
2023-01-05T04:12:56.293Z,8.80
2023-01-05T04:15:25.719Z,9.60
2023-01-05T04:17:56.017Z,8.87
2023-01-05T04:20:24.312Z,9.27
2023-01-05T04:22:55.050Z,9.00
2023-01-05T04:25:24.712Z,9.07
2023-01-05T04:27:53.213Z,9.00
2023-01-05T04:30:23.085Z,9.00
2023-01-05T04:32:51.445Z,9.60
2023-01-05T04:35:19.744Z,9.20
2023-01-05T04:37:49.774Z,8.93
2023-01-05T04:40:19.579Z,9.33
2023-01-05T04:42:52.521Z,9.30
2023-01-05T04:45:20.955Z,9.13
2023-01-05T04:47:50.115Z,9.33
2023-01-05T04:50:22.129Z,9.60
2023-01-05T04:52:51.460Z,9.33
2023-01-05T04:55:23.791Z,9.53
2023-01-05T04:57:52.505Z,9.70
2023-01-05T05:00:22.398Z,9.43
2023-01-05T05:02:52.464Z,9.20
2023-01-05T05:05:20.877Z,9.13
2023-01-05T05:07:52.860Z,9.33
2023-01-05T05:10:21.198Z,9.23
2023-01-05T05:12:51.116Z,9.03
2023-01-05T05:15:20.879Z,9.57
2023-01-05T05:17:51.417Z,9.73
2023-01-05T05:20:19.811Z,9.73
2023-01-05T05:22:48.163Z,9.50
2023-01-05T05:25:20.014Z,9.57
2023-01-05T05:27:51.064Z,9.33
2023-01-05T05:30:19.428Z,9.10
2023-01-05T05:32:47.702Z,9.20
2023-01-05T05:35:16.126Z,9.73
2023-01-05T05:37:44.728Z,9.60
2023-01-05T05:40:13.901Z,9.33
2023-01-05T05:42:42.219Z,9.50
2023-01-05T05:45:13.027Z,9.53
2023-01-05T05:47:41.305Z,9.20
2023-01-05T05:50:10.970Z,9.23
2023-01-05T05:52:39.369Z,9.33
2023-01-05T05:55:09.654Z,9.43
2023-01-05T05:57:37.995Z,9.10
2023-01-05T06:00:07.917Z,9.13
2023-01-05T06:02:43.467Z,9.50
2023-01-05T06:05:11.939Z,9.60
2023-01-05T06:07:40.207Z,9.67
2023-01-05T06:10:10.114Z,9.67
2023-01-05T06:12:38.605Z,9.50
2023-01-05T06:15:08.678Z,9.47
2023-01-05T06:17:37.014Z,9.63
2023-01-05T06:20:09.456Z,9.67
2023-01-05T06:22:37.990Z,9.17
2023-01-05T06:25:07.361Z,9.30
2023-01-05T06:27:35.680Z,9.40
2023-01-05T06:30:04.701Z,9.00
2023-01-05T06:32:33.091Z,9.53
2023-01-05T06:35:01.383Z,9.83
2023-01-05T06:37:31.204Z,9.40
2023-01-05T06:40:00.018Z,9.77
2023-01-05T06:42:28.544Z,9.20
2023-01-05T06:44:56.790Z,10.07
2023-01-05T06:47:25.126Z,9.53
2023-01-05T06:49:53.363Z,9.67
2023-01-05T06:52:21.648Z,9.57
2023-01-05T06:54:51.291Z,9.50
2023-01-05T06:57:19.573Z,9.77
2023-01-05T06:59:47.843Z,9.70
2023-01-05T07:02:17.797Z,9.90
2023-01-05T07:04:46.162Z,9.60
2023-01-05T07:07:15.415Z,9.63
2023-01-05T07:09:45.088Z,9.30
2023-01-05T07:12:14.732Z,9.80
2023-01-05T07:14:43.000Z,10.00
2023-01-05T07:17:12.580Z,9.90
2023-01-05T07:19:41.000Z,9.83
2023-01-05T07:22:09.383Z,9.47
2023-01-05T07:24:37.786Z,9.30
2023-01-05T07:27:09.781Z,9.40
2023-01-05T07:29:39.815Z,10.10
2023-01-05T07:32:08.626Z,10.30
2023-01-05T07:34:37.289Z,10.00
2023-01-05T07:37:05.664Z,9.87
2023-01-05T07:39:33.941Z,9.70
2023-01-05T07:42:02.270Z,9.67
2023-01-05T07:44:32.936Z,9.53
2023-01-05T07:47:02.889Z,9.87
2023-01-05T07:49:31.255Z,9.30
2023-01-05T07:51:59.615Z,9.50
2023-01-05T07:54:28.503Z,9.80
2023-01-05T07:56:56.788Z,10.20
2023-01-05T07:59:25.127Z,9.63
2023-01-05T08:01:53.597Z,10.40
2023-01-05T08:04:23.727Z,10.30
2023-01-05T08:06:52.583Z,9.63
2023-01-05T08:09:38.357Z,9.70
2023-01-05T08:12:07.216Z,9.60
2023-01-05T08:14:35.577Z,9.30
2023-01-05T08:17:03.889Z,9.67
2023-01-05T08:19:33.540Z,9.80
2023-01-05T08:22:01.893Z,9.67
2023-01-05T08:24:30.239Z,9.53
2023-01-05T08:26:58.649Z,9.13
2023-01-05T08:29:26.967Z,9.70
2023-01-05T08:31:55.311Z,9.67
2023-01-05T08:34:23.669Z,9.57
2023-01-05T08:36:53.298Z,9.63
2023-01-05T08:39:21.740Z,9.83
2023-01-05T08:41:50.106Z,9.43
2023-01-05T08:44:18.575Z,9.53
2023-01-05T08:46:46.855Z,9.50
2023-01-05T08:49:15.253Z,9.67
2023-01-05T08:51:43.548Z,9.50
2023-01-05T08:54:13.260Z,9.53
2023-01-05T08:56:42.823Z,9.40
2023-01-05T08:59:14.504Z,9.47
2023-01-05T09:01:42.962Z,9.60
2023-01-05T09:04:11.378Z,9.67
2023-01-05T09:06:39.636Z,9.40
2023-01-05T09:09:08.167Z,9.07
2023-01-05T09:11:37.935Z,9.70
2023-01-05T09:14:06.257Z,9.90
2023-01-05T09:19:24.548Z,9.50
2023-01-05T09:21:53.625Z,9.40
2023-01-05T09:24:21.925Z,9.60
2023-01-05T09:26:51.579Z,9.40
2023-01-05T09:29:20.068Z,9.20
2023-01-05T09:31:48.470Z,9.67
2023-01-05T09:34:19.025Z,9.77
2023-01-05T09:36:47.719Z,9.33
2023-01-05T09:39:16.184Z,9.43
2023-01-05T09:41:47.694Z,9.57
2023-01-05T09:44:30.302Z,10.00
2023-01-05T09:47:04.308Z,9.47
2023-01-05T09:49:34.657Z,9.27
2023-01-05T09:52:09.323Z,9.23
2023-01-05T09:54:40.056Z,9.50
2023-01-05T09:57:16.735Z,9.63
2023-01-05T09:59:49.839Z,9.47
2023-01-05T10:02:27.195Z,9.43
2023-01-05T10:04:56.669Z,9.57
2023-01-05T10:07:43.057Z,9.90
2023-01-05T10:10:30.924Z,9.47
2023-01-05T10:13:05.609Z,9.70
2023-01-05T10:15:46.546Z,9.20
2023-01-05T10:18:17.595Z,9.30
2023-01-05T10:20:59.128Z,9.50
2023-01-05T10:23:57.345Z,9.80
2023-01-05T10:26:50.963Z,9.33
2023-01-05T10:29:25.133Z,9.60
2023-01-05T10:32:01.198Z,9.57
2023-01-05T10:34:54.065Z,9.13
2023-01-05T10:37:46.757Z,9.80
2023-01-05T10:40:28.862Z,9.33
2023-01-05T10:43:31.906Z,9.20
2023-01-05T10:48:50.195Z,8.97
2023-01-05T10:51:19.531Z,9.07
2023-01-05T10:53:47.985Z,9.37
2023-01-05T10:56:24.867Z,9.33
2023-01-05T10:59:10.233Z,9.63
2023-01-05T11:01:39.736Z,9.50
2023-01-05T11:04:29.341Z,9.60
2023-01-05T11:07:05.637Z,9.37
2023-01-05T11:09:40.502Z,9.27
2023-01-05T11:12:20.415Z,9.40
2023-01-05T11:14:58.387Z,9.80
2023-01-05T11:17:30.369Z,9.80
2023-01-05T11:20:00.242Z,9.83
2023-01-05T11:22:35.645Z,9.70
2023-01-05T11:25:25.868Z,9.63
2023-01-05T11:28:14.929Z,9.73
2023-01-05T11:30:59.166Z,9.60
2023-01-05T11:33:30.729Z,9.50
2023-01-05T11:36:01.994Z,9.43
2023-01-05T11:38:32.180Z,9.50
2023-01-05T11:41:01.914Z,9.90
2023-01-05T11:43:34.056Z,9.87
2023-01-05T11:46:06.019Z,10.10
2023-01-05T11:48:36.988Z,9.70
2023-01-05T11:51:07.070Z,9.50
2023-01-05T11:53:41.206Z,9.30
2023-01-05T11:56:22.503Z,9.90
2023-01-05T11:58:54.533Z,9.80
2023-01-05T12:01:56.976Z,9.30
2023-01-05T12:05:07.527Z,8.97
2023-01-05T12:07:38.866Z,9.30
2023-01-05T12:10:36.669Z,9.17
2023-01-05T12:13:19.737Z,9.40
2023-01-05T12:16:09.774Z,9.93
2023-01-05T12:19:14.960Z,9.50
2023-01-05T12:21:50.244Z,9.20
2023-01-05T12:24:48.896Z,9.43
2023-01-05T12:27:33.904Z,9.07
2023-01-05T12:36:48.811Z,9.10
2023-01-05T12:39:57.881Z,9.33
2023-01-05T12:43:06.023Z,9.73
2023-01-05T12:45:58.592Z,9.27
2023-01-05T12:48:31.659Z,9.00
2023-01-05T12:51:11.420Z,9.57
2023-01-05T12:53:48.327Z,9.77
2023-01-05T12:56:25.755Z,9.17
2023-01-05T12:59:12.201Z,9.40
2023-01-05T13:01:56.237Z,9.50
2023-01-05T13:04:46.259Z,9.40
2023-01-05T13:07:23.041Z,9.53
2023-01-05T13:10:02.614Z,9.00
2023-01-05T13:12:35.374Z,9.10
2023-01-05T13:15:15.102Z,8.90
2023-01-05T13:17:48.652Z,9.23
2023-01-05T13:20:32.520Z,9.73
2023-01-05T13:23:06.549Z,9.70
2023-01-05T13:25:53.077Z,9.27
2023-01-05T13:28:27.204Z,9.37
2023-01-05T13:31:18.320Z,9.40
2023-01-05T13:34:27.338Z,9.27
2023-01-05T13:37:26.501Z,9.63
2023-01-05T13:40:24.661Z,9.40
2023-01-05T13:43:25.492Z,10.00
2023-01-05T13:46:15.793Z,9.47
2023-01-05T13:49:27.587Z,9.37
2023-01-05T13:51:58.465Z,9.60
2023-01-05T13:55:00.035Z,9.40
2023-01-05T13:57:35.594Z,9.53
2023-01-05T14:00:12.433Z,9.53
2023-01-05T14:02:45.560Z,9.33
2023-01-05T14:05:25.144Z,9.43
2023-01-05T14:07:55.706Z,9.30
2023-01-05T14:10:28.688Z,9.70
2023-01-05T14:12:57.654Z,9.37
2023-01-05T14:15:42.315Z,9.30
2023-01-05T14:18:11.999Z,9.40
2023-01-05T14:20:48.928Z,9.63
2023-01-05T14:23:59.023Z,9.23
2023-01-05T14:27:02.967Z,9.00
2023-01-05T14:30:28.482Z,9.10
2023-01-05T14:33:07.083Z,9.40
2023-01-05T14:35:37.433Z,9.00
2023-01-05T14:38:14.725Z,9.60
2023-01-05T14:40:46.545Z,9.17
2023-01-05T14:43:30.705Z,8.90
2023-01-05T14:46:06.059Z,9.43
2023-01-05T14:48:39.593Z,8.80
2023-01-05T14:51:23.870Z,9.27
2023-01-05T14:53:54.264Z,8.80
2023-01-05T14:56:26.421Z,9.30
2023-01-05T14:59:02.867Z,9.37
2023-01-05T15:04:19.599Z,9.17
2023-01-05T15:07:07.828Z,8.87
2023-01-05T15:10:04.666Z,9.10
2023-01-05T15:12:53.414Z,9.40
2023-01-05T15:15:44.547Z,8.90
2023-01-05T15:18:56.295Z,8.90
2023-01-05T15:22:12.790Z,9.30
2023-01-05T15:25:27.625Z,9.20
2023-01-05T15:28:36.433Z,9.53
2023-01-05T15:31:32.689Z,9.00
2023-01-05T15:34:20.073Z,9.57
2023-01-05T15:36:55.814Z,8.97
2023-01-05T15:39:30.123Z,9.43
2023-01-05T15:42:02.178Z,9.33
2023-01-05T15:44:35.427Z,10.33
2023-01-05T15:47:04.970Z,9.30
2023-01-05T15:49:35.251Z,9.47
2023-01-05T15:52:03.577Z,9.50
2023-01-05T15:54:34.645Z,9.30
2023-01-05T15:57:03.698Z,9.80
2023-01-05T15:59:36.230Z,9.00
2023-01-05T16:02:17.943Z,9.03
2023-01-05T16:04:46.207Z,9.77
2023-01-05T16:07:14.667Z,9.00
2023-01-05T16:09:48.449Z,9.63
2023-01-05T16:12:24.236Z,9.60
2023-01-05T16:15:00.610Z,9.03
2023-01-05T16:17:32.219Z,9.63
2023-01-05T16:20:05.464Z,10.20
2023-01-05T16:22:37.986Z,9.47
2023-01-05T16:25:14.970Z,9.50
2023-01-05T16:27:45.969Z,9.67
2023-01-05T16:30:27.626Z,9.40
2023-01-05T16:33:02.690Z,9.60
2023-01-05T16:35:47.441Z,9.23
2023-01-05T16:38:26.078Z,9.27
2023-01-05T16:41:13.420Z,9.40
2023-01-05T16:43:51.476Z,9.17
2023-01-05T16:46:36.363Z,9.73
2023-01-05T16:49:43.527Z,9.47
2023-01-05T16:52:24.368Z,9.07
2023-01-05T16:55:27.443Z,9.70
2023-01-05T16:57:58.213Z,9.57
2023-01-05T17:00:39.928Z,9.23
2023-01-05T17:03:31.606Z,9.90
2023-01-05T17:06:01.580Z,9.53
2023-01-05T17:08:35.879Z,9.83
2023-01-05T17:11:09.417Z,9.43
2023-01-05T17:13:43.450Z,10.13
2023-01-05T17:16:13.209Z,8.85
2023-01-05T17:18:41.872Z,9.43
2023-01-05T17:21:13.888Z,9.23
2023-01-05T17:23:47.109Z,9.40
2023-01-05T17:26:20.001Z,9.80
2023-01-05T17:28:50.098Z,9.27
2023-01-05T17:31:18.481Z,9.93
2023-01-05T17:33:46.902Z,9.97
2023-01-05T17:38:48.605Z,9.43
2023-01-05T17:41:17.296Z,9.33
2023-01-05T17:43:46.031Z,9.73
2023-01-05T17:46:21.566Z,10.20
2023-01-05T17:48:50.329Z,9.30
2023-01-05T17:51:18.628Z,9.43
2023-01-05T17:53:46.937Z,9.57
2023-01-05T17:56:16.327Z,9.47
2023-01-05T17:58:46.961Z,11.80
2023-01-05T18:01:16.827Z,10.10
2023-01-05T18:03:45.247Z,12.30
2023-01-05T18:06:13.867Z,10.60
2023-01-05T18:11:10.607Z,11.07
2023-01-05T18:13:39.291Z,10.00
2023-01-05T18:16:09.868Z,9.63
2023-01-05T18:18:39.636Z,9.77
2023-01-05T18:21:08.744Z,9.50
2023-01-05T18:23:37.446Z,10.17
2023-01-05T18:26:09.217Z,9.80
2023-01-05T18:28:38.710Z,9.67
2023-01-05T18:31:12.540Z,9.87
2023-01-05T18:33:42.379Z,10.03
2023-01-05T18:36:14.185Z,9.50
2023-01-05T18:38:43.535Z,9.70
2023-01-05T18:41:12.223Z,10.07
2023-01-05T18:43:41.085Z,9.83
2023-01-05T18:46:09.585Z,9.90
2023-01-05T18:48:37.893Z,9.50
2023-01-05T18:51:09.176Z,10.07
2023-01-05T18:53:39.439Z,10.00
2023-01-05T18:56:08.965Z,10.00
2023-01-05T18:58:37.669Z,9.60
2023-01-05T19:01:10.194Z,14.40
2023-01-05T19:03:39.186Z,14.90
2023-01-05T19:06:13.341Z,15.93
2023-01-05T19:08:43.162Z,17.57
2023-01-05T19:11:14.131Z,13.50
2023-01-05T19:13:45.204Z,13.37
2023-01-05T19:16:15.573Z,12.80
2023-01-05T19:18:44.191Z,10.93
2023-01-05T19:21:13.857Z,10.60
2023-01-05T19:23:42.229Z,10.53
2023-01-05T19:26:10.641Z,10.40
2023-01-05T19:28:40.432Z,10.90
2023-01-05T19:31:10.586Z,10.50
2023-01-05T19:33:39.665Z,10.83
2023-01-05T19:36:11.083Z,10.60
2023-01-05T19:38:41.986Z,10.10
2023-01-05T19:41:13.553Z,10.10
2023-01-05T19:43:42.664Z,9.80
2023-01-05T19:46:14.765Z,9.90
2023-01-05T19:48:44.701Z,9.93
2023-01-05T19:51:15.894Z,10.00
2023-01-05T19:53:46.349Z,10.23
2023-01-05T19:56:17.028Z,9.93
2023-01-05T19:58:45.715Z,9.93
2023-01-05T20:01:16.329Z,9.50
2023-01-05T20:03:46.796Z,9.93
2023-01-05T20:06:19.033Z,9.87
2023-01-05T20:08:52.627Z,9.80
2023-01-05T20:11:35.956Z,9.97
2023-01-05T20:14:06.084Z,9.80
2023-01-05T20:16:35.132Z,10.00
2023-01-05T20:19:04.239Z,10.17
2023-01-05T20:21:33.537Z,9.90
2023-01-05T20:24:06.597Z,10.23
2023-01-05T20:26:35.397Z,10.67
2023-01-05T20:29:03.746Z,10.00
2023-01-05T20:31:35.758Z,10.20
2023-01-05T20:34:07.615Z,10.10
2023-01-05T20:36:36.463Z,10.20
2023-01-05T20:39:09.315Z,10.60
2023-01-05T20:41:41.601Z,10.57
2023-01-05T20:44:11.133Z,10.67
2023-01-05T20:46:45.791Z,11.00
2023-01-05T20:49:16.191Z,10.37
2023-01-05T20:51:45.206Z,9.83
2023-01-05T20:54:15.841Z,9.90
2023-01-05T20:56:46.508Z,10.10
2023-01-05T20:59:18.563Z,9.80
2023-01-05T21:01:47.244Z,10.20
2023-01-05T21:04:16.046Z,10.60
2023-01-05T21:06:45.397Z,10.00
2023-01-05T21:09:16.046Z,10.50
2023-01-05T21:11:44.791Z,9.80
2023-01-05T21:14:15.363Z,10.00
2023-01-05T21:16:46.837Z,10.30
2023-01-05T21:19:18.749Z,10.60
2023-01-05T21:21:50.154Z,9.93
2023-01-05T21:24:20.416Z,9.70
2023-01-05T21:26:48.991Z,10.10
2023-01-05T21:29:20.525Z,10.07
2023-01-05T21:31:50.045Z,10.13
2023-01-05T21:34:18.711Z,9.80
2023-01-05T21:36:49.147Z,10.47
2023-01-05T21:39:22.013Z,9.90
2023-01-05T21:42:09.566Z,10.60
2023-01-05T21:44:38.494Z,10.37
2023-01-05T21:47:07.565Z,10.60
2023-01-05T21:49:36.213Z,10.10
2023-01-05T21:52:23.366Z,10.17
2023-01-05T21:55:10.481Z,10.50
2023-01-05T21:57:38.895Z,10.23
2023-01-05T22:00:08.858Z,10.73
2023-01-05T22:02:37.397Z,10.50
2023-01-05T22:05:07.185Z,9.93
2023-01-05T22:07:35.552Z,10.20
2023-01-05T22:10:05.953Z,10.57
2023-01-05T22:12:34.412Z,10.27
2023-01-05T22:15:02.773Z,10.10
2023-01-05T22:17:31.120Z,10.00
2023-01-05T22:19:59.464Z,10.47
2023-01-05T22:22:27.875Z,9.90
2023-01-05T22:24:56.157Z,9.87
2023-01-05T22:27:25.941Z,10.07
2023-01-05T22:29:54.283Z,10.03
2023-01-05T22:32:22.639Z,10.23
2023-01-05T22:34:50.989Z,10.13
2023-01-05T22:37:19.283Z,10.27
2023-01-05T22:39:47.599Z,10.17
2023-01-05T22:42:16.015Z,9.80
2023-01-05T22:44:45.682Z,10.23
2023-01-05T22:47:14.181Z,10.20
2023-01-05T22:49:42.574Z,10.60
2023-01-05T22:52:10.888Z,10.40
2023-01-05T22:54:40.208Z,10.30
2023-01-05T22:57:08.638Z,10.00
2023-01-05T22:59:36.933Z,10.13
2023-01-05T23:02:06.717Z,10.23
2023-01-05T23:04:35.140Z,10.37
2023-01-05T23:07:03.532Z,10.23
2023-01-05T23:09:31.829Z,10.00
2023-01-05T23:12:01.236Z,10.30
2023-01-05T23:14:29.662Z,9.87
2023-01-05T23:16:58.010Z,10.30
2023-01-05T23:19:27.784Z,9.77
2023-01-05T23:21:56.882Z,10.00
2023-01-05T23:24:25.398Z,10.43
2023-01-05T23:26:54.863Z,10.10
2023-01-05T23:29:23.421Z,10.50
2023-01-05T23:31:51.769Z,10.03
2023-01-05T23:34:20.383Z,9.80
2023-01-05T23:36:50.092Z,10.20
2023-01-05T23:39:18.440Z,10.20
2023-01-05T23:41:46.799Z,10.77
2023-01-05T23:44:15.108Z,10.60
2023-01-05T23:46:43.472Z,9.93
2023-01-05T23:49:11.837Z,10.53
2023-01-05T23:51:40.178Z,9.97
2023-01-05T23:54:10.862Z,9.50
2023-01-05T23:56:39.297Z,9.87
2023-01-05T23:59:09.316Z,9.90
